createdAt,value
2022-12-22T00:00:25.360Z,52.83
2022-12-22T00:03:16.054Z,52.78
2022-12-22T00:06:06.742Z,56.97
2022-12-22T00:09:03.574Z,55.05
2022-12-22T00:11:56.017Z,48.88
2022-12-22T00:14:46.714Z,52.88
2022-12-22T00:17:45.600Z,50.28
2022-12-22T00:20:38.672Z,51.15
2022-12-22T00:23:29.734Z,54.97
2022-12-22T00:26:20.312Z,46.80
2022-12-22T00:29:11.004Z,57.78
2022-12-22T00:32:02.829Z,49.13
2022-12-22T00:35:01.639Z,46.35
2022-12-22T00:37:56.726Z,46.00
2022-12-22T00:40:47.656Z,55.35
2022-12-22T00:46:30.939Z,53.88
2022-12-22T00:49:21.709Z,48.95
2022-12-22T00:52:12.453Z,55.78
2022-12-22T00:55:03.093Z,48.10
2022-12-22T00:57:54.439Z,57.42
2022-12-22T01:00:45.174Z,48.80
2022-12-22T01:03:35.804Z,45.60
2022-12-22T01:06:29.636Z,49.63
2022-12-22T01:09:20.377Z,49.17
2022-12-22T01:12:10.889Z,56.25
2022-12-22T01:15:01.549Z,55.22
2022-12-22T01:17:51.907Z,51.05
2022-12-22T01:20:42.640Z,52.42
2022-12-22T01:23:33.341Z,52.38
2022-12-22T01:26:27.970Z,52.85
2022-12-22T01:29:18.769Z,52.25
2022-12-22T01:32:09.224Z,44.33
2022-12-22T01:35:00.532Z,61.70
2022-12-22T01:37:51.256Z,58.42
2022-12-22T01:40:43.847Z,58.83
2022-12-22T01:43:46.621Z,47.00
2022-12-22T01:46:43.521Z,55.55
2022-12-22T01:49:37.276Z,61.25
2022-12-22T01:52:31.056Z,46.88
2022-12-22T01:55:26.806Z,59.00
2022-12-22T01:58:17.326Z,53.50
2022-12-22T02:01:08.656Z,52.40
2022-12-22T02:03:59.276Z,46.25
2022-12-22T02:07:00.463Z,48.33
2022-12-22T02:10:09.070Z,45.72
2022-12-22T02:13:22.632Z,57.47
2022-12-22T02:16:33.188Z,58.10
2022-12-22T02:19:33.985Z,52.97
2022-12-22T02:23:01.892Z,52.50
2022-12-22T02:26:16.553Z,49.70
2022-12-22T02:29:08.267Z,47.67
2022-12-22T02:32:00.575Z,48.28
2022-12-22T02:34:51.376Z,51.28
2022-12-22T02:37:50.667Z,52.25
2022-12-22T02:41:19.264Z,53.13
2022-12-22T02:44:35.387Z,48.42
2022-12-22T02:47:52.988Z,53.75
2022-12-22T02:51:06.036Z,45.90
2022-12-22T02:53:58.578Z,49.75
2022-12-22T02:56:49.250Z,48.83
2022-12-22T02:59:39.942Z,51.67
2022-12-22T03:02:32.039Z,52.95
2022-12-22T03:05:22.688Z,52.97
2022-12-22T03:08:14.004Z,52.42
2022-12-22T03:11:04.784Z,50.50
2022-12-22T03:13:55.694Z,51.20
2022-12-22T03:19:36.813Z,44.80
2022-12-22T03:22:27.564Z,49.30
2022-12-22T03:25:18.288Z,52.78
2022-12-22T03:27:50.233Z,49.90
2022-12-22T03:30:22.123Z,50.08
2022-12-22T03:32:54.086Z,54.00
2022-12-22T03:35:26.164Z,50.97
2022-12-22T03:37:58.002Z,51.53
2022-12-22T03:40:31.436Z,47.67
2022-12-22T03:43:22.077Z,46.97
2022-12-22T03:46:15.885Z,44.58
2022-12-22T03:49:07.985Z,45.10
2022-12-22T03:51:45.341Z,47.92
2022-12-22T03:54:21.231Z,45.25
2022-12-22T03:56:54.203Z,45.92
2022-12-22T03:59:26.310Z,43.72
2022-12-22T04:01:58.679Z,45.92
2022-12-22T04:04:34.109Z,42.67
2022-12-22T04:07:06.053Z,44.83
2022-12-22T04:09:57.949Z,41.47
2022-12-22T04:12:48.625Z,41.58
2022-12-22T04:15:25.575Z,45.13
2022-12-22T04:17:58.597Z,43.75
2022-12-22T04:20:30.606Z,41.42
2022-12-22T04:23:02.797Z,41.22
2022-12-22T04:25:34.801Z,47.08
2022-12-22T04:28:06.770Z,43.90
2022-12-22T04:30:38.811Z,43.95
2022-12-22T04:33:10.787Z,42.97
2022-12-22T04:35:44.634Z,43.40
2022-12-22T04:38:16.633Z,47.08
2022-12-22T04:40:48.538Z,46.33
2022-12-22T04:43:20.505Z,41.65
2022-12-22T04:45:54.359Z,48.45
2022-12-22T04:48:28.237Z,49.58
2022-12-22T04:51:01.122Z,44.58
2022-12-22T04:53:33.221Z,46.40
2022-12-22T04:56:07.834Z,49.58
2022-12-22T04:58:39.796Z,43.28
2022-12-22T05:01:14.226Z,40.17
2022-12-22T05:03:46.829Z,42.58
2022-12-22T05:06:19.299Z,40.72
2022-12-22T05:08:51.435Z,44.53
2022-12-22T05:11:23.615Z,40.85
2022-12-22T05:13:55.729Z,42.08
2022-12-22T05:16:27.741Z,47.25
2022-12-22T05:18:59.716Z,40.95
2022-12-22T05:21:31.707Z,45.25
2022-12-22T05:24:04.276Z,43.58
2022-12-22T05:26:36.199Z,45.47
2022-12-22T05:29:08.157Z,45.78
2022-12-22T05:31:46.821Z,46.83
2022-12-22T05:34:19.225Z,43.42
2022-12-22T05:36:51.220Z,41.60
2022-12-22T05:39:23.212Z,44.33
2022-12-22T05:41:55.175Z,41.88
2022-12-22T05:44:27.177Z,41.35
2022-12-22T05:46:59.098Z,45.17
2022-12-22T05:49:31.108Z,51.00
2022-12-22T05:52:03.253Z,45.85
2022-12-22T05:54:35.326Z,44.17
2022-12-22T05:57:07.326Z,49.53
2022-12-22T05:59:39.374Z,45.30
2022-12-22T06:02:11.644Z,43.72
2022-12-22T06:04:43.674Z,49.10
2022-12-22T06:07:15.684Z,42.72
2022-12-22T06:09:47.637Z,45.85
2022-12-22T06:12:19.627Z,41.53
2022-12-22T06:14:52.043Z,42.80
2022-12-22T06:17:24.101Z,38.85
2022-12-22T06:19:56.104Z,38.75
2022-12-22T06:22:28.052Z,37.83
2022-12-22T06:25:00.265Z,40.15
2022-12-22T06:27:32.228Z,38.78
2022-12-22T06:30:04.809Z,35.88
2022-12-22T06:32:38.226Z,39.05
2022-12-22T06:35:10.921Z,42.60
2022-12-22T06:37:49.356Z,48.63
2022-12-22T06:40:21.389Z,61.05
2022-12-22T06:43:09.593Z,66.53
2022-12-22T06:45:44.116Z,57.90
2022-12-22T06:48:16.492Z,69.70
2022-12-22T06:50:48.640Z,59.15
2022-12-22T06:53:21.132Z,49.00
2022-12-22T06:55:54.610Z,43.25
2022-12-22T06:58:27.083Z,43.50
2022-12-22T07:00:59.489Z,44.40
2022-12-22T07:03:31.558Z,50.17
2022-12-22T07:06:04.783Z,52.95
2022-12-22T07:08:36.836Z,52.75
2022-12-22T07:11:13.757Z,45.53
2022-12-22T07:13:46.537Z,43.80
2022-12-22T07:16:20.329Z,39.15
2022-12-22T07:18:52.572Z,41.88
2022-12-22T07:21:26.693Z,39.60
2022-12-22T07:23:58.782Z,43.53
2022-12-22T07:26:31.003Z,42.65
2022-12-22T07:29:02.950Z,39.95
2022-12-22T07:31:35.431Z,40.17
2022-12-22T07:34:07.709Z,42.72
2022-12-22T07:36:39.939Z,41.28
2022-12-22T07:39:12.993Z,57.55
2022-12-22T07:42:03.489Z,56.45
2022-12-22T07:44:35.462Z,55.20
2022-12-22T07:47:07.405Z,54.53
2022-12-22T07:49:58.097Z,44.08
2022-12-22T07:52:30.019Z,47.25
2022-12-22T07:55:01.953Z,44.15
2022-12-22T07:57:36.200Z,42.42
2022-12-22T08:00:08.904Z,54.85
2022-12-22T08:02:41.142Z,44.85
2022-12-22T08:05:13.262Z,45.78
2022-12-22T08:07:45.571Z,47.85
2022-12-22T08:10:18.839Z,43.08
2022-12-22T08:12:51.283Z,47.10
2022-12-22T08:15:23.250Z,44.20
2022-12-22T08:17:55.173Z,45.97
2022-12-22T08:20:27.201Z,41.40
2022-12-22T08:22:59.964Z,45.10
2022-12-22T08:25:34.643Z,45.85
2022-12-22T08:28:06.746Z,42.17
2022-12-22T08:30:38.925Z,40.60
2022-12-22T08:33:10.893Z,35.95
2022-12-22T08:35:43.830Z,37.10
2022-12-22T08:38:15.864Z,39.88
2022-12-22T08:40:48.508Z,40.78
2022-12-22T08:43:22.188Z,48.55
2022-12-22T08:45:54.297Z,43.63
2022-12-22T08:48:26.267Z,44.22
2022-12-22T08:50:58.823Z,45.67
2022-12-22T08:54:03.251Z,38.55
2022-12-22T08:56:22.713Z,41.08
2022-12-22T08:58:54.617Z,38.95
2022-12-22T09:01:26.738Z,38.28
2022-12-22T09:03:59.339Z,37.72
2022-12-22T09:06:38.340Z,49.47
2022-12-22T09:09:14.153Z,55.15
2022-12-22T09:11:46.424Z,76.15
2022-12-22T09:14:20.597Z,47.78
2022-12-22T09:16:52.653Z,46.58
2022-12-22T09:19:24.842Z,49.78
2022-12-22T09:21:57.167Z,45.80
2022-12-22T09:24:29.311Z,43.85
2022-12-22T09:27:03.768Z,44.38
2022-12-22T09:29:38.339Z,38.80
2022-12-22T09:32:10.359Z,43.83
2022-12-22T09:34:42.312Z,43.90
2022-12-22T09:37:16.077Z,45.15
2022-12-22T09:39:48.768Z,43.28
2022-12-22T09:42:21.987Z,40.30
2022-12-22T09:44:54.034Z,44.20
2022-12-22T09:47:36.382Z,47.15
2022-12-22T09:50:16.238Z,44.15
2022-12-22T09:52:51.428Z,40.17
2022-12-22T09:55:26.378Z,38.40
2022-12-22T09:57:58.390Z,38.67
2022-12-22T10:00:30.489Z,34.33
2022-12-22T10:03:27.914Z,42.30
2022-12-22T10:06:11.062Z,38.60
2022-12-22T10:08:43.461Z,39.30
2022-12-22T10:11:18.165Z,46.13
2022-12-22T10:13:50.120Z,42.15
2022-12-22T10:16:27.888Z,37.97
2022-12-22T10:19:12.628Z,43.25
2022-12-22T10:21:47.165Z,39.10
2022-12-22T10:24:28.778Z,35.60
2022-12-22T10:27:01.976Z,36.63
2022-12-22T10:29:34.822Z,38.17
2022-12-22T10:32:16.767Z,35.17
2022-12-22T10:35:18.069Z,37.13
2022-12-22T10:37:50.024Z,38.05
2022-12-22T10:40:23.282Z,35.85
2022-12-22T10:42:57.788Z,37.92
2022-12-22T10:45:29.905Z,40.92
2022-12-22T10:48:02.128Z,37.35
2022-12-22T10:50:34.172Z,33.85
2022-12-22T10:53:06.729Z,38.97
2022-12-22T10:55:39.657Z,36.58
2022-12-22T10:58:11.628Z,40.60
2022-12-22T11:00:45.255Z,36.35
2022-12-22T11:03:31.362Z,36.67
2022-12-22T11:06:13.053Z,35.60
2022-12-22T11:08:51.284Z,36.60
2022-12-22T11:11:38.216Z,38.15
2022-12-22T11:14:15.752Z,39.10
2022-12-22T11:16:52.846Z,42.72
2022-12-22T11:19:46.391Z,39.78
2022-12-22T11:22:46.033Z,41.75
2022-12-22T11:25:37.246Z,41.65
2022-12-22T11:28:12.125Z,47.05
2022-12-22T11:30:55.497Z,42.00
2022-12-22T11:33:42.533Z,39.58
2022-12-22T11:36:34.655Z,43.63
2022-12-22T11:39:16.719Z,39.42
2022-12-22T11:42:11.428Z,38.55
2022-12-22T11:45:09.608Z,42.67
2022-12-22T11:47:51.179Z,44.83
2022-12-22T11:51:00.709Z,44.08
2022-12-22T11:54:15.497Z,36.70
2022-12-22T11:56:55.775Z,34.35
2022-12-22T11:59:58.689Z,39.15
2022-12-22T12:02:59.479Z,37.22
2022-12-22T12:06:02.678Z,36.45
2022-12-22T12:08:34.799Z,36.53
2022-12-22T12:11:09.732Z,36.78
2022-12-22T12:13:47.795Z,35.45
2022-12-22T12:16:35.413Z,36.03
2022-12-22T12:19:31.923Z,36.53
2022-12-22T12:22:05.831Z,37.08
2022-12-22T12:25:11.854Z,37.13
2022-12-22T12:28:04.883Z,37.47
2022-12-22T12:30:52.633Z,38.78
2022-12-22T12:33:48.429Z,38.10
2022-12-22T12:36:32.389Z,39.25
2022-12-22T12:39:19.735Z,34.22
2022-12-22T12:42:29.130Z,37.78
2022-12-22T12:45:02.988Z,36.10
2022-12-22T12:47:36.803Z,32.30
2022-12-22T12:50:32.008Z,33.25
2022-12-22T12:53:08.281Z,29.80
2022-12-22T12:55:40.216Z,33.53
2022-12-22T12:58:34.973Z,34.88
2022-12-22T13:01:12.726Z,36.20
2022-12-22T13:04:05.285Z,33.22
2022-12-22T13:06:49.971Z,32.75
2022-12-22T13:12:55.288Z,31.17
2022-12-22T13:15:29.556Z,34.10
2022-12-22T13:18:03.998Z,30.52
2022-12-22T13:20:37.982Z,31.80
2022-12-22T13:23:15.785Z,32.63
2022-12-22T13:25:53.481Z,33.90
2022-12-22T13:28:27.461Z,33.78
2022-12-22T13:31:05.672Z,31.48
2022-12-22T13:33:40.690Z,31.27
2022-12-22T13:36:22.392Z,36.17
2022-12-22T13:39:02.686Z,38.35
2022-12-22T13:41:35.054Z,37.03
2022-12-22T13:44:10.801Z,41.30
2022-12-22T13:46:43.526Z,37.83
2022-12-22T13:49:36.144Z,40.10
2022-12-22T13:52:15.416Z,43.10
2022-12-22T13:54:47.899Z,40.72
2022-12-22T13:57:22.378Z,35.38
2022-12-22T13:59:55.442Z,37.40
2022-12-22T14:02:33.657Z,40.13
2022-12-22T14:05:11.855Z,37.75
2022-12-22T14:08:04.023Z,41.53
2022-12-22T14:10:44.134Z,43.28
2022-12-22T14:13:22.795Z,40.65
2022-12-22T14:16:05.901Z,70.72
2022-12-22T14:18:38.710Z,125.47
2022-12-22T14:21:12.362Z,167.07
2022-12-22T14:23:44.529Z,158.05
2022-12-22T14:26:24.264Z,130.13
2022-12-22T14:28:57.313Z,66.10
2022-12-22T14:31:29.555Z,44.35
2022-12-22T14:34:05.654Z,41.53
2022-12-22T14:36:46.316Z,40.88
2022-12-22T14:39:24.151Z,39.50
2022-12-22T14:41:59.026Z,40.50
2022-12-22T14:44:34.619Z,40.13
2022-12-22T14:47:13.115Z,39.95
2022-12-22T14:50:05.140Z,38.25
2022-12-22T14:52:45.484Z,39.42
2022-12-22T14:55:31.426Z,43.88
2022-12-22T14:58:12.629Z,45.28
2022-12-22T15:00:47.118Z,46.55
2022-12-22T15:03:25.152Z,44.50
2022-12-22T15:05:57.480Z,47.03
2022-12-22T15:08:43.107Z,46.40
2022-12-22T15:11:19.876Z,48.63
2022-12-22T15:13:54.329Z,49.30
2022-12-22T15:16:26.525Z,46.50
2022-12-22T15:18:58.836Z,45.38
2022-12-22T15:21:31.165Z,49.95
2022-12-22T15:24:03.845Z,51.35
2022-12-22T15:26:38.057Z,41.28
2022-12-22T15:29:10.161Z,42.25
2022-12-22T15:31:43.512Z,49.88
2022-12-22T15:34:31.029Z,45.28
2022-12-22T15:37:03.000Z,45.70
2022-12-22T15:39:34.986Z,48.42
2022-12-22T15:42:07.112Z,50.10
2022-12-22T15:44:39.534Z,49.40
2022-12-22T15:47:13.014Z,45.97
2022-12-22T15:49:45.111Z,50.78
2022-12-22T15:52:17.524Z,51.35
2022-12-22T15:54:49.669Z,46.55
2022-12-22T15:57:21.500Z,52.53
2022-12-22T15:59:53.498Z,45.13
2022-12-22T16:02:25.592Z,47.70
2022-12-22T16:04:57.896Z,44.72
2022-12-22T16:07:31.584Z,44.92
2022-12-22T16:10:04.685Z,48.20
2022-12-22T16:12:37.775Z,50.90
2022-12-22T16:15:14.209Z,54.80
2022-12-22T16:17:46.167Z,55.80
2022-12-22T16:20:18.155Z,54.88
2022-12-22T16:22:52.459Z,48.92
2022-12-22T16:25:34.268Z,53.92
2022-12-22T16:28:07.170Z,51.38
2022-12-22T16:30:39.694Z,52.15
2022-12-22T16:33:12.957Z,47.22
2022-12-22T16:35:45.094Z,49.15
2022-12-22T16:38:19.210Z,41.75
2022-12-22T16:40:53.750Z,42.47
2022-12-22T16:43:51.493Z,55.33
2022-12-22T16:46:24.291Z,44.58
2022-12-22T16:49:02.391Z,48.17
2022-12-22T16:51:34.943Z,46.40
2022-12-22T16:54:06.878Z,48.55
2022-12-22T16:56:39.445Z,48.63
2022-12-22T16:59:11.482Z,45.38
2022-12-22T17:01:52.667Z,45.17
2022-12-22T17:04:32.857Z,49.63
2022-12-22T17:07:06.823Z,48.05
2022-12-22T17:09:42.942Z,50.05
2022-12-22T17:12:35.151Z,46.17
2022-12-22T17:15:17.484Z,49.28
2022-12-22T17:17:49.625Z,47.42
2022-12-22T17:20:24.041Z,50.05
2022-12-22T17:22:59.989Z,47.67
2022-12-22T17:25:32.211Z,46.45
2022-12-22T17:28:04.397Z,49.00
2022-12-22T17:30:36.662Z,41.28
2022-12-22T17:33:16.216Z,43.83
2022-12-22T17:35:48.316Z,47.85
2022-12-22T17:38:22.560Z,49.40
2022-12-22T17:40:54.766Z,54.78
2022-12-22T17:43:26.700Z,49.58
2022-12-22T17:45:58.733Z,48.85
2022-12-22T17:48:30.705Z,49.30
2022-12-22T17:51:02.775Z,52.25
2022-12-22T17:53:40.599Z,47.65
2022-12-22T17:56:18.836Z,49.67
2022-12-22T17:58:51.067Z,50.53
2022-12-22T18:01:29.546Z,48.75
2022-12-22T18:04:01.730Z,51.92
2022-12-22T18:06:35.935Z,51.50
2022-12-22T18:09:15.576Z,45.95
2022-12-22T18:11:48.841Z,45.47
2022-12-22T18:14:23.242Z,44.63
2022-12-22T18:16:55.399Z,45.20
2022-12-22T18:19:27.403Z,45.28
2022-12-22T18:21:59.359Z,46.25
2022-12-22T18:24:31.276Z,44.75
2022-12-22T18:27:03.292Z,45.80
2022-12-22T18:29:35.364Z,45.00
2022-12-22T18:32:09.628Z,51.05
2022-12-22T18:34:41.915Z,49.33
2022-12-22T18:37:16.890Z,48.50
2022-12-22T18:39:48.891Z,44.55
2022-12-22T18:42:23.067Z,51.53
2022-12-22T18:44:55.031Z,49.78
2022-12-22T18:47:27.009Z,54.38
2022-12-22T18:50:03.160Z,56.35
2022-12-22T18:52:35.211Z,47.00
2022-12-22T18:55:15.836Z,50.00
2022-12-22T18:57:49.163Z,52.28
2022-12-22T19:00:28.087Z,55.60
2022-12-22T19:03:01.654Z,51.33
2022-12-22T19:05:33.982Z,55.83
2022-12-22T19:08:05.967Z,49.58
2022-12-22T19:10:41.384Z,52.85
2022-12-22T19:13:30.113Z,61.28
2022-12-22T19:16:02.530Z,61.75
2022-12-22T19:18:34.609Z,51.55
2022-12-22T19:21:06.811Z,51.65
2022-12-22T19:23:38.772Z,53.72
2022-12-22T19:26:22.805Z,50.75
2022-12-22T19:28:57.503Z,54.00
2022-12-22T19:31:32.762Z,51.35
2022-12-22T19:34:10.630Z,53.92
2022-12-22T19:36:42.849Z,48.28
2022-12-22T19:39:14.813Z,52.15
2022-12-22T19:41:55.059Z,46.72
2022-12-22T19:44:29.965Z,47.00
2022-12-22T19:47:03.191Z,42.55
2022-12-22T19:49:35.212Z,45.15
2022-12-22T19:52:09.932Z,47.88
2022-12-22T19:54:41.888Z,50.45
2022-12-22T19:57:20.656Z,47.15
2022-12-22T19:59:54.551Z,48.28
2022-12-22T20:02:32.617Z,48.60
2022-12-22T20:05:11.596Z,48.20
2022-12-22T20:07:47.008Z,46.35
2022-12-22T20:10:19.876Z,44.10
2022-12-22T20:12:54.579Z,46.20
2022-12-22T20:15:38.335Z,42.08
2022-12-22T20:18:22.450Z,44.10
2022-12-22T20:21:06.079Z,47.05
2022-12-22T20:23:39.522Z,49.22
2022-12-22T20:26:18.057Z,47.40
2022-12-22T20:28:50.250Z,47.30
2022-12-22T20:31:24.439Z,54.13
2022-12-22T20:33:56.515Z,53.95
2022-12-22T20:36:32.230Z,49.28
2022-12-22T20:39:12.892Z,52.85
2022-12-22T20:41:52.321Z,45.42
2022-12-22T20:44:25.339Z,43.65
2022-12-22T20:46:57.327Z,48.22
2022-12-22T20:49:29.326Z,42.58
2022-12-22T20:52:01.319Z,45.80
2022-12-22T20:54:33.329Z,45.83
2022-12-22T20:57:05.375Z,41.47
2022-12-22T20:59:37.548Z,36.33
2022-12-22T21:02:24.908Z,39.75
2022-12-22T21:04:57.072Z,38.95
2022-12-22T21:07:29.156Z,41.25
2022-12-22T21:10:01.109Z,35.83
2022-12-22T21:12:33.117Z,38.70
2022-12-22T21:15:05.576Z,40.47
2022-12-22T21:17:38.532Z,43.65
2022-12-22T21:20:19.759Z,44.50
2022-12-22T21:22:51.856Z,46.60
2022-12-22T21:25:25.236Z,43.83
2022-12-22T21:27:59.351Z,43.90
2022-12-22T21:30:31.573Z,46.70
2022-12-22T21:33:03.650Z,49.38
2022-12-22T21:35:38.181Z,42.00
2022-12-22T21:38:18.168Z,40.92
2022-12-22T21:40:53.869Z,38.90
2022-12-22T21:43:26.288Z,35.88
2022-12-22T21:45:58.346Z,34.85
2022-12-22T21:48:30.394Z,35.30
2022-12-22T21:51:02.514Z,31.73
2022-12-22T21:53:34.475Z,29.13
2022-12-22T21:56:17.019Z,30.25
2022-12-22T21:58:49.013Z,31.38
2022-12-22T22:01:21.157Z,31.20
2022-12-22T22:03:53.193Z,32.03
2022-12-22T22:06:25.218Z,27.95
2022-12-22T22:08:57.188Z,31.17
2022-12-22T22:11:29.168Z,30.80
2022-12-22T22:14:01.128Z,31.25
2022-12-22T22:16:33.204Z,31.55
2022-12-22T22:19:05.178Z,30.85
2022-12-22T22:21:37.144Z,30.98
2022-12-22T22:24:09.218Z,31.45
2022-12-22T22:26:41.519Z,34.10
2022-12-22T22:29:13.696Z,33.90
2022-12-22T22:31:45.822Z,35.25
2022-12-22T22:34:17.884Z,34.38
2022-12-22T22:36:51.614Z,41.95
2022-12-22T22:39:23.872Z,36.72
2022-12-22T22:41:55.903Z,37.30
2022-12-22T22:44:28.014Z,39.80
2022-12-22T22:47:00.514Z,40.63
2022-12-22T22:49:32.535Z,45.20
2022-12-22T22:52:04.644Z,39.78
2022-12-22T22:54:37.208Z,42.60
2022-12-22T22:57:09.157Z,35.58
2022-12-22T22:59:41.304Z,43.92
2022-12-22T23:02:15.118Z,42.75
2022-12-22T23:04:47.724Z,41.38
2022-12-22T23:07:19.723Z,37.08
2022-12-22T23:09:51.593Z,37.60
2022-12-22T23:12:23.544Z,38.65
2022-12-22T23:14:55.567Z,36.45
2022-12-22T23:17:27.730Z,34.15
2022-12-22T23:20:00.127Z,34.03
2022-12-22T23:22:32.110Z,36.10
2022-12-22T23:25:04.599Z,37.40
2022-12-22T23:27:36.538Z,34.80
2022-12-22T23:30:09.620Z,38.42
2022-12-22T23:32:41.583Z,34.22
2022-12-22T23:35:13.545Z,39.80
2022-12-22T23:37:45.481Z,38.72
2022-12-22T23:40:50.644Z,40.85
2022-12-22T23:43:12.346Z,41.45
2022-12-22T23:45:44.314Z,39.83
2022-12-22T23:48:16.912Z,41.13
2022-12-22T23:50:49.142Z,37.40
2022-12-22T23:53:21.163Z,41.88
2022-12-22T23:55:53.106Z,41.80
2022-12-22T23:58:25.336Z,38.30
